createdAt,value
2022-08-31T00:01:08.211Z,4.47
2022-08-31T00:03:53.235Z,3.28
2022-08-31T00:06:20.078Z,3.78
2022-08-31T00:08:49.031Z,3.38
2022-08-31T00:11:16.825Z,2.63
2022-08-31T00:13:46.618Z,3.00
2022-08-31T00:16:15.721Z,2.83
2022-08-31T00:18:42.432Z,2.20
2022-08-31T00:21:08.993Z,2.17
2022-08-31T00:23:35.407Z,2.63
2022-08-31T00:26:01.840Z,2.50
2022-08-31T00:28:30.613Z,2.65
2022-08-31T00:30:59.495Z,3.13
2022-08-31T00:33:28.558Z,3.00
2022-08-31T00:35:54.999Z,4.18
2022-08-31T00:38:21.452Z,2.78
2022-08-31T00:40:48.344Z,3.88
2022-08-31T00:43:41.970Z,19.08
2022-08-31T00:46:11.858Z,5.15
2022-08-31T00:48:48.252Z,6.60
2022-08-31T00:51:18.909Z,5.45
2022-08-31T00:53:47.947Z,6.82
2022-08-31T00:56:19.584Z,5.07
2022-08-31T00:58:54.779Z,7.45
2022-08-31T01:01:22.068Z,6.00
2022-08-31T01:03:50.928Z,6.88
2022-08-31T01:06:18.541Z,6.82
2022-08-31T01:08:48.407Z,7.15
2022-08-31T01:11:17.975Z,7.50
2022-08-31T01:13:47.195Z,5.05
2022-08-31T01:16:18.782Z,5.72
2022-08-31T01:18:45.815Z,4.97
2022-08-31T01:21:25.656Z,6.55
2022-08-31T01:24:00.081Z,6.20
2022-08-31T01:26:28.575Z,6.97
2022-08-31T01:28:58.436Z,4.95
2022-08-31T01:31:32.734Z,4.65
2022-08-31T01:34:01.197Z,5.50
2022-08-31T01:36:30.754Z,4.55
2022-08-31T01:38:57.207Z,6.28
2022-08-31T01:41:23.817Z,5.03
2022-08-31T01:43:50.761Z,4.72
2022-08-31T01:46:19.628Z,4.20
2022-08-31T01:48:48.070Z,4.03
2022-08-31T01:51:17.636Z,4.32
2022-08-31T01:53:48.796Z,3.70
2022-08-31T01:56:19.958Z,4.40
2022-08-31T01:58:49.000Z,6.88
2022-08-31T02:01:33.992Z,3.70
2022-08-31T02:04:04.751Z,4.53
2022-08-31T02:06:31.545Z,3.67
2022-08-31T02:08:58.295Z,4.65
2022-08-31T02:11:24.763Z,3.45
2022-08-31T02:13:53.668Z,3.90
2022-08-31T02:16:22.502Z,4.97
2022-08-31T02:18:49.177Z,4.95
2022-08-31T02:21:15.609Z,4.63
2022-08-31T02:23:44.631Z,5.68
2022-08-31T02:26:11.757Z,7.22
2022-08-31T02:28:38.284Z,4.70
2022-08-31T02:31:04.810Z,5.28
2022-08-31T02:33:31.405Z,5.30
2022-08-31T02:35:58.448Z,4.50
2022-08-31T02:38:27.562Z,4.68
2022-08-31T02:40:54.041Z,3.60
2022-08-31T02:43:25.145Z,4.50
2022-08-31T02:45:54.140Z,5.28
2022-08-31T02:48:23.871Z,4.28
2022-08-31T02:50:52.044Z,5.15
2022-08-31T02:53:20.417Z,4.78
2022-08-31T02:55:49.808Z,5.07
2022-08-31T02:58:19.597Z,4.45
2022-08-31T03:00:50.756Z,4.85
2022-08-31T03:03:19.870Z,5.18
2022-08-31T03:05:46.390Z,6.00
2022-08-31T03:08:12.947Z,5.72
2022-08-31T03:10:39.516Z,5.47
2022-08-31T03:13:05.949Z,5.40
2022-08-31T03:15:34.762Z,6.40
2022-08-31T03:18:01.272Z,6.20
2022-08-31T03:20:35.979Z,5.65
2022-08-31T03:23:05.526Z,4.43
2022-08-31T03:25:34.555Z,4.63
2022-08-31T03:28:03.352Z,5.93
2022-08-31T03:30:32.431Z,5.07
2022-08-31T03:33:02.440Z,5.85
2022-08-31T03:35:44.284Z,4.47
2022-08-31T03:38:12.715Z,5.70
2022-08-31T03:40:41.012Z,6.70
2022-08-31T03:43:11.575Z,6.57
2022-08-31T03:45:40.024Z,5.63
2022-08-31T03:48:12.608Z,5.43
2022-08-31T03:50:43.045Z,6.15
2022-08-31T03:53:10.046Z,5.55
2022-08-31T03:55:39.082Z,5.13
2022-08-31T03:58:07.136Z,6.10
2022-08-31T04:00:34.656Z,4.70
2022-08-31T04:03:03.838Z,6.93
2022-08-31T04:05:34.963Z,5.47
2022-08-31T04:08:06.215Z,6.20
2022-08-31T04:10:35.224Z,6.95
2022-08-31T04:13:01.614Z,7.05
2022-08-31T04:15:29.311Z,7.75
2022-08-31T04:17:57.481Z,5.72
2022-08-31T04:20:24.510Z,6.88
2022-08-31T04:22:56.661Z,6.00
2022-08-31T04:25:27.981Z,5.88
2022-08-31T04:27:55.053Z,5.82
2022-08-31T04:30:24.757Z,8.52
2022-08-31T04:32:53.236Z,6.68
2022-08-31T04:35:19.722Z,6.85
2022-08-31T04:37:48.885Z,5.75
2022-08-31T04:40:19.708Z,6.82
2022-08-31T04:42:47.521Z,6.28
2022-08-31T04:45:14.909Z,5.72
2022-08-31T04:47:42.413Z,6.78
2022-08-31T04:50:10.361Z,6.57
2022-08-31T04:52:39.193Z,5.90
2022-08-31T04:55:07.120Z,6.80
2022-08-31T04:57:38.376Z,6.45
2022-08-31T05:00:05.573Z,6.43
2022-08-31T05:02:34.827Z,6.43
2022-08-31T05:05:01.418Z,5.45
2022-08-31T05:07:27.972Z,4.95
2022-08-31T05:09:54.483Z,6.80
2022-08-31T05:12:21.087Z,6.40
2022-08-31T05:14:47.838Z,6.20
2022-08-31T05:17:16.886Z,7.70
2022-08-31T05:19:45.491Z,6.57
2022-08-31T05:22:14.362Z,7.47
2022-08-31T05:24:45.354Z,7.45
2022-08-31T05:27:14.311Z,6.30
2022-08-31T05:29:40.863Z,5.45
2022-08-31T05:32:09.807Z,5.15
2022-08-31T05:34:38.287Z,5.20
2022-08-31T05:37:07.048Z,5.10
2022-08-31T05:39:33.601Z,5.95
2022-08-31T05:42:02.574Z,5.65
2022-08-31T05:44:29.537Z,5.07
2022-08-31T05:46:57.630Z,5.55
2022-08-31T05:49:30.188Z,7.07
2022-08-31T05:51:59.547Z,5.35
2022-08-31T05:54:26.048Z,5.22
2022-08-31T05:56:52.462Z,4.72
2022-08-31T05:59:18.931Z,4.95
2022-08-31T06:01:45.395Z,4.25
2022-08-31T06:04:14.148Z,5.70
2022-08-31T06:06:42.657Z,5.78
2022-08-31T06:09:09.689Z,5.45
2022-08-31T06:11:38.199Z,4.25
2022-08-31T06:14:05.729Z,5.38
2022-08-31T06:16:33.306Z,7.90
2022-08-31T06:19:03.236Z,8.63
2022-08-31T06:21:33.406Z,8.52
2022-08-31T06:24:03.185Z,6.18
2022-08-31T06:26:32.044Z,5.90
2022-08-31T06:29:03.574Z,6.15
2022-08-31T06:31:37.431Z,7.90
2022-08-31T06:34:07.557Z,8.10
2022-08-31T06:36:34.641Z,5.43
2022-08-31T06:39:04.177Z,5.82
2022-08-31T06:41:36.612Z,5.00
2022-08-31T06:44:06.112Z,6.00
2022-08-31T06:46:36.756Z,6.05
2022-08-31T06:49:08.535Z,4.40
2022-08-31T06:51:37.776Z,5.55
2022-08-31T06:54:28.375Z,5.22
2022-08-31T06:57:00.157Z,4.50
2022-08-31T06:59:30.037Z,5.15
2022-08-31T07:02:00.174Z,4.43
2022-08-31T07:04:30.485Z,6.10
2022-08-31T07:06:56.981Z,5.35
2022-08-31T07:09:25.578Z,6.25
2022-08-31T07:11:53.533Z,5.97
2022-08-31T07:14:22.609Z,4.55
2022-08-31T07:16:50.002Z,5.28
2022-08-31T07:19:19.352Z,5.28
2022-08-31T07:21:50.345Z,4.50
2022-08-31T07:24:23.850Z,5.78
2022-08-31T07:26:57.986Z,5.93
2022-08-31T07:29:30.274Z,4.22
2022-08-31T07:31:59.185Z,4.72
2022-08-31T07:34:29.003Z,6.43
2022-08-31T07:37:15.625Z,6.45
2022-08-31T07:40:12.157Z,4.93
2022-08-31T07:42:43.173Z,4.28
2022-08-31T07:45:22.497Z,3.70
2022-08-31T07:47:51.121Z,4.50
2022-08-31T07:50:23.039Z,4.70
2022-08-31T07:52:54.010Z,4.50
2022-08-31T07:55:22.468Z,4.65
2022-08-31T07:57:53.784Z,4.53
2022-08-31T08:00:23.201Z,4.35
2022-08-31T08:02:52.290Z,4.45
2022-08-31T08:05:26.969Z,4.22
2022-08-31T08:08:00.123Z,4.00
2022-08-31T08:10:27.560Z,4.40
2022-08-31T08:13:05.212Z,5.35
2022-08-31T08:15:35.480Z,4.63
2022-08-31T08:18:04.609Z,5.45
2022-08-31T08:20:37.659Z,5.10
2022-08-31T08:23:11.374Z,5.65
2022-08-31T08:25:40.181Z,4.55
2022-08-31T08:28:38.200Z,5.40
2022-08-31T08:31:04.560Z,4.65
2022-08-31T08:33:34.844Z,4.85
2022-08-31T08:36:03.590Z,4.53
2022-08-31T08:38:35.817Z,4.18
2022-08-31T08:41:10.198Z,5.93
2022-08-31T08:43:50.005Z,4.82
2022-08-31T08:46:35.071Z,4.97
2022-08-31T08:49:10.081Z,4.70
2022-08-31T08:51:38.801Z,5.90
2022-08-31T08:54:10.458Z,4.55
2022-08-31T08:56:42.040Z,4.28
2022-08-31T08:59:12.161Z,4.30
2022-08-31T09:01:44.921Z,5.90
2022-08-31T09:04:31.608Z,6.18
2022-08-31T09:07:09.325Z,5.05
2022-08-31T09:09:38.719Z,6.50
2022-08-31T09:12:23.027Z,5.55
2022-08-31T09:15:36.613Z,6.20
2022-08-31T09:18:03.251Z,7.20
2022-08-31T09:20:33.622Z,4.60
2022-08-31T09:23:00.900Z,4.40
2022-08-31T09:25:34.809Z,5.22
2022-08-31T09:28:07.454Z,6.35
2022-08-31T09:30:39.274Z,4.50
2022-08-31T09:33:23.554Z,4.40
2022-08-31T09:35:55.653Z,4.80
2022-08-31T09:38:40.163Z,4.50
2022-08-31T09:41:22.694Z,4.25
2022-08-31T09:43:52.315Z,4.72
2022-08-31T09:46:28.943Z,5.72
2022-08-31T09:48:58.212Z,4.10
2022-08-31T09:51:32.203Z,5.40
2022-08-31T09:54:22.963Z,5.43
2022-08-31T09:57:01.131Z,6.38
2022-08-31T09:59:39.916Z,6.40
2022-08-31T10:02:26.878Z,5.45
2022-08-31T10:05:00.937Z,4.95
2022-08-31T10:07:43.269Z,4.72
2022-08-31T10:10:30.056Z,5.10
2022-08-31T10:13:18.681Z,6.10
2022-08-31T10:15:48.521Z,4.82
2022-08-31T10:18:20.246Z,5.25
2022-08-31T10:20:55.494Z,4.97
2022-08-31T10:23:27.296Z,6.13
2022-08-31T10:26:03.424Z,4.93
2022-08-31T10:28:53.777Z,5.07
2022-08-31T10:31:23.725Z,5.90
2022-08-31T10:34:12.599Z,7.50
2022-08-31T10:36:40.165Z,6.25
2022-08-31T10:39:19.201Z,7.50
2022-08-31T10:41:49.368Z,6.05
2022-08-31T10:44:26.270Z,5.15
2022-08-31T10:46:58.968Z,4.88
2022-08-31T10:49:26.446Z,6.38
2022-08-31T10:52:35.141Z,4.60
2022-08-31T10:55:33.032Z,5.50
2022-08-31T10:58:21.640Z,5.18
2022-08-31T11:01:03.927Z,4.40
2022-08-31T11:04:08.731Z,5.35
2022-08-31T11:06:58.341Z,4.82
2022-08-31T11:09:45.010Z,5.53
2022-08-31T11:12:18.412Z,5.05
2022-08-31T11:15:09.571Z,5.53
2022-08-31T11:18:04.124Z,5.40
2022-08-31T11:20:39.785Z,5.50
2022-08-31T11:23:21.300Z,5.85
2022-08-31T11:26:07.070Z,5.07
2022-08-31T11:28:40.956Z,5.75
2022-08-31T11:31:17.697Z,5.32
2022-08-31T11:34:12.237Z,5.05
2022-08-31T11:36:47.971Z,4.95
2022-08-31T11:39:37.432Z,6.53
2022-08-31T11:42:12.311Z,4.88
2022-08-31T11:44:42.006Z,6.28
2022-08-31T11:47:37.842Z,5.78
2022-08-31T11:50:27.737Z,5.32
2022-08-31T11:52:56.713Z,5.68
2022-08-31T11:55:37.899Z,5.18
2022-08-31T11:58:07.409Z,5.97
2022-08-31T12:00:52.213Z,5.68
2022-08-31T12:03:51.562Z,4.88
2022-08-31T12:06:33.761Z,4.93
2022-08-31T12:09:24.631Z,5.22
2022-08-31T12:12:09.946Z,8.13
2022-08-31T12:14:51.199Z,6.78
2022-08-31T12:17:27.539Z,8.32
2022-08-31T12:20:07.761Z,8.48
2022-08-31T12:23:11.260Z,6.32
2022-08-31T12:26:03.191Z,6.53
2022-08-31T12:28:50.749Z,4.30
2022-08-31T12:31:22.931Z,7.93
2022-08-31T12:34:06.223Z,5.85
2022-08-31T12:36:35.015Z,9.30
2022-08-31T12:39:28.438Z,6.05
2022-08-31T12:41:57.065Z,4.70
2022-08-31T12:44:27.958Z,6.95
2022-08-31T12:47:01.191Z,5.28
2022-08-31T13:05:40.580Z,6.53
2022-08-31T13:08:25.066Z,6.18
2022-08-31T13:10:52.245Z,5.93
2022-08-31T13:13:27.952Z,5.10
2022-08-31T13:16:04.669Z,7.20
2022-08-31T13:18:31.281Z,8.68
2022-08-31T13:21:05.495Z,6.82
2022-08-31T13:23:44.760Z,6.15
2022-08-31T13:26:25.754Z,6.68
2022-08-31T13:28:56.737Z,5.40
2022-08-31T13:31:29.789Z,4.75
2022-08-31T13:34:07.409Z,5.40
2022-08-31T13:36:37.835Z,6.15
2022-08-31T13:39:18.646Z,6.38
2022-08-31T13:42:32.379Z,7.85
2022-08-31T13:45:01.708Z,5.65
2022-08-31T13:47:35.059Z,5.53
2022-08-31T13:50:21.543Z,7.20
2022-08-31T13:53:36.271Z,6.40
2022-08-31T13:55:49.518Z,8.60
2022-08-31T13:58:31.533Z,7.45
2022-08-31T14:01:26.468Z,6.47
2022-08-31T14:03:59.052Z,7.47
2022-08-31T14:06:33.801Z,5.90
2022-08-31T14:09:05.177Z,5.88
2022-08-31T14:11:33.650Z,4.57
2022-08-31T14:14:07.357Z,7.43
2022-08-31T14:16:37.138Z,6.15
2022-08-31T14:19:06.884Z,5.60
2022-08-31T14:21:35.891Z,8.10
2022-08-31T14:24:04.672Z,5.22
2022-08-31T14:26:41.364Z,4.78
2022-08-31T14:29:14.634Z,8.45
2022-08-31T14:31:52.176Z,7.13
2022-08-31T14:34:24.375Z,6.20
2022-08-31T14:36:53.754Z,7.22
2022-08-31T14:39:31.570Z,4.85
2022-08-31T14:42:03.382Z,4.93
2022-08-31T14:44:34.371Z,4.53
2022-08-31T14:47:04.190Z,5.25
2022-08-31T14:49:36.239Z,5.45
2022-08-31T14:52:06.684Z,5.68
2022-08-31T14:54:36.981Z,4.10
2022-08-31T14:57:09.718Z,4.43
2022-08-31T14:59:42.051Z,5.22
2022-08-31T15:02:11.745Z,5.82
2022-08-31T15:04:45.756Z,6.13
2022-08-31T15:07:13.519Z,4.38
2022-08-31T15:09:43.358Z,5.97
2022-08-31T15:12:14.746Z,4.78
2022-08-31T15:14:47.078Z,4.47
2022-08-31T15:17:19.300Z,6.15
2022-08-31T15:19:48.010Z,4.05
2022-08-31T15:22:15.804Z,4.45
2022-08-31T15:24:44.717Z,4.20
2022-08-31T15:27:15.400Z,5.72
2022-08-31T15:29:46.654Z,4.78
2022-08-31T15:32:19.498Z,4.15
2022-08-31T15:34:53.186Z,6.03
2022-08-31T15:37:19.674Z,3.80
2022-08-31T15:39:49.371Z,4.28
2022-08-31T15:42:21.082Z,5.10
2022-08-31T15:44:56.003Z,4.50
2022-08-31T15:47:53.316Z,6.15
2022-08-31T15:50:23.085Z,5.93
2022-08-31T15:52:51.902Z,18.75
2022-08-31T15:55:21.496Z,7.72
2022-08-31T15:57:48.404Z,6.13
2022-08-31T16:00:19.713Z,4.53
2022-08-31T16:02:46.404Z,4.93
2022-08-31T16:05:16.330Z,4.82
2022-08-31T16:07:43.215Z,4.57
2022-08-31T16:10:19.831Z,5.18
2022-08-31T16:12:50.456Z,5.03
2022-08-31T16:15:17.979Z,5.25
2022-08-31T16:17:46.855Z,6.22
2022-08-31T16:20:16.757Z,6.18
2022-08-31T16:22:43.235Z,6.00
2022-08-31T16:25:12.901Z,4.70
2022-08-31T16:27:40.765Z,6.05
2022-08-31T16:30:11.601Z,5.82
2022-08-31T16:32:38.216Z,7.32
2022-08-31T16:35:07.985Z,6.07
2022-08-31T16:37:34.446Z,5.65
2022-08-31T16:40:04.480Z,7.20
2022-08-31T16:42:30.920Z,5.50
2022-08-31T16:45:01.837Z,8.88
2022-08-31T16:47:29.133Z,5.68
2022-08-31T16:49:55.750Z,4.47
2022-08-31T16:52:26.484Z,3.72
2022-08-31T16:54:57.415Z,4.55
2022-08-31T16:57:28.918Z,4.78
2022-08-31T16:59:59.238Z,5.80
2022-08-31T17:02:26.652Z,4.20
2022-08-31T17:04:54.318Z,3.92
2022-08-31T17:07:23.239Z,5.65
2022-08-31T17:09:49.912Z,5.32
2022-08-31T17:12:21.529Z,5.00
2022-08-31T17:14:52.076Z,4.47
2022-08-31T17:17:21.277Z,4.95
2022-08-31T17:19:51.970Z,5.18
2022-08-31T17:22:25.668Z,4.82
2022-08-31T17:24:57.614Z,4.50
2022-08-31T17:27:25.177Z,4.90
2022-08-31T17:29:53.769Z,4.75
2022-08-31T17:32:23.179Z,4.43
2022-08-31T17:34:54.663Z,5.28
2022-08-31T17:37:27.748Z,5.20
2022-08-31T17:39:57.190Z,4.38
2022-08-31T17:42:28.268Z,4.90
2022-08-31T17:44:56.385Z,4.22
2022-08-31T17:47:25.954Z,4.50
2022-08-31T17:49:53.277Z,4.15
2022-08-31T17:52:21.756Z,4.32
2022-08-31T17:54:50.859Z,5.15
2022-08-31T17:57:19.523Z,4.63
2022-08-31T17:59:48.947Z,4.47
2022-08-31T18:02:19.999Z,4.82
2022-08-31T18:04:49.239Z,4.90
2022-08-31T18:07:21.054Z,4.38
2022-08-31T18:09:47.636Z,4.40
2022-08-31T18:12:15.700Z,4.80
2022-08-31T18:14:42.900Z,4.60
2022-08-31T18:17:11.036Z,4.75
2022-08-31T18:19:40.406Z,5.13
2022-08-31T18:22:12.830Z,4.68
2022-08-31T18:24:39.295Z,4.80
2022-08-31T18:27:10.518Z,5.50
2022-08-31T18:29:38.071Z,4.68
2022-08-31T18:32:08.099Z,4.50
2022-08-31T18:34:39.955Z,5.30
2022-08-31T18:37:07.325Z,5.90
2022-08-31T18:39:52.817Z,6.50
2022-08-31T18:42:38.988Z,5.88
2022-08-31T18:45:19.156Z,5.20
2022-08-31T18:48:20.881Z,5.35
2022-08-31T18:50:42.278Z,5.55
2022-08-31T18:53:10.994Z,7.93
2022-08-31T18:55:42.371Z,6.68
2022-08-31T18:58:08.888Z,6.07
2022-08-31T19:00:37.873Z,6.13
2022-08-31T19:03:04.451Z,7.30
2022-08-31T19:05:32.514Z,6.53
2022-08-31T19:08:00.328Z,7.50
2022-08-31T19:10:31.923Z,6.22
2022-08-31T19:13:01.457Z,6.78
2022-08-31T19:15:35.311Z,7.78
2022-08-31T19:18:02.575Z,10.13
2022-08-31T19:20:31.505Z,8.23
2022-08-31T19:23:00.747Z,8.18
2022-08-31T19:25:30.137Z,6.88
2022-08-31T19:27:56.809Z,8.32
2022-08-31T19:30:28.039Z,7.40
2022-08-31T19:32:57.271Z,8.80
2022-08-31T19:35:26.775Z,9.23
2022-08-31T19:37:53.787Z,7.43
2022-08-31T19:40:20.664Z,7.30
2022-08-31T19:45:43.395Z,6.95
2022-08-31T19:48:13.902Z,7.78
2022-08-31T19:50:43.555Z,8.52
2022-08-31T19:53:13.501Z,9.63
2022-08-31T19:55:50.149Z,8.65
2022-08-31T19:58:18.536Z,8.32
2022-08-31T20:00:49.875Z,7.70
2022-08-31T20:03:19.056Z,7.05
2022-08-31T20:05:48.262Z,8.38
2022-08-31T20:08:14.922Z,8.13
2022-08-31T20:10:43.315Z,11.23
2022-08-31T20:13:12.269Z,6.93
2022-08-31T20:15:43.706Z,10.75
2022-08-31T20:18:12.682Z,12.73
2022-08-31T20:20:45.423Z,9.40
2022-08-31T20:23:17.923Z,7.97
2022-08-31T20:25:46.374Z,7.95
2022-08-31T20:28:16.889Z,8.60
2022-08-31T20:30:43.800Z,8.43
2022-08-31T20:33:11.255Z,7.28
2022-08-31T20:35:42.425Z,11.00
2022-08-31T20:38:13.141Z,8.02
2022-08-31T20:40:41.269Z,7.50
2022-08-31T20:43:10.751Z,8.77
2022-08-31T20:45:40.613Z,8.60
2022-08-31T20:48:29.272Z,7.05
2022-08-31T20:50:58.543Z,7.97
2022-08-31T20:53:42.392Z,7.50
2022-08-31T20:56:16.937Z,7.47
2022-08-31T20:58:46.519Z,6.00
2022-08-31T21:01:13.823Z,7.53
2022-08-31T21:03:40.885Z,6.57
2022-08-31T21:06:11.126Z,6.50
2022-08-31T21:08:42.431Z,8.27
2022-08-31T21:11:21.577Z,7.68
2022-08-31T21:13:49.993Z,10.40
2022-08-31T21:16:19.379Z,10.32
2022-08-31T21:18:48.775Z,10.35
2022-08-31T21:21:17.286Z,8.40
2022-08-31T21:23:47.659Z,7.35
2022-08-31T21:26:21.336Z,13.05
2022-08-31T21:28:49.031Z,12.02
2022-08-31T21:31:28.656Z,10.93
2022-08-31T21:34:00.743Z,7.60
2022-08-31T21:36:32.957Z,14.68
2022-08-31T21:39:00.284Z,10.27
2022-08-31T21:41:30.578Z,12.90
2022-08-31T21:43:57.528Z,11.73
2022-08-31T21:46:26.595Z,12.65
2022-08-31T21:48:59.914Z,8.95
2022-08-31T21:51:27.845Z,8.90
2022-08-31T21:53:56.623Z,9.43
2022-08-31T21:56:24.744Z,6.13
2022-08-31T21:58:51.692Z,11.45
2022-08-31T22:01:19.656Z,9.63
2022-08-31T22:03:47.746Z,7.38
2022-08-31T22:06:22.143Z,7.15
2022-08-31T22:09:00.207Z,8.98
2022-08-31T22:11:32.914Z,8.60
2022-08-31T22:13:59.552Z,11.82
2022-08-31T22:16:28.530Z,9.50
2022-08-31T22:19:01.329Z,11.77
2022-08-31T22:21:34.335Z,9.30
2022-08-31T22:24:07.381Z,10.07
2022-08-31T22:26:37.228Z,10.68
2022-08-31T22:29:08.588Z,9.93
2022-08-31T22:31:39.219Z,8.98
2022-08-31T22:34:10.264Z,9.02
2022-08-31T22:36:37.397Z,9.20
2022-08-31T22:39:09.417Z,7.32
2022-08-31T22:41:39.473Z,9.18
2022-08-31T22:44:12.768Z,7.38
2022-08-31T22:46:42.411Z,8.32
2022-08-31T22:49:09.059Z,8.10
2022-08-31T22:51:37.007Z,9.60
2022-08-31T22:54:04.218Z,11.35
2022-08-31T22:56:33.064Z,10.07
2022-08-31T22:59:04.905Z,8.82
2022-08-31T23:01:35.158Z,8.13
2022-08-31T23:04:08.750Z,6.65
2022-08-31T23:06:39.354Z,9.57
2022-08-31T23:09:10.523Z,8.57
2022-08-31T23:11:38.318Z,9.60
2022-08-31T23:14:10.068Z,10.20
2022-08-31T23:16:38.248Z,10.20
2022-08-31T23:19:16.660Z,11.43
2022-08-31T23:21:52.947Z,10.45
2022-08-31T23:24:41.146Z,7.57
2022-08-31T23:27:11.506Z,7.03
2022-08-31T23:29:41.122Z,8.30
2022-08-31T23:32:11.102Z,7.07
2022-08-31T23:34:38.634Z,9.95
2022-08-31T23:37:08.501Z,7.97
2022-08-31T23:39:37.246Z,8.75
2022-08-31T23:42:03.991Z,9.82
2022-08-31T23:44:30.715Z,9.50
2022-08-31T23:46:59.229Z,7.93
2022-08-31T23:49:28.203Z,10.65
2022-08-31T23:51:54.619Z,9.95
2022-08-31T23:54:21.199Z,6.85
2022-08-31T23:56:57.860Z,7.03
2022-08-31T23:59:24.938Z,11.18
